sensor_id;sensor_type;location;lat;lon;timestamp;P1;durP1;ratioP1;P2;durP2;ratioP2
665;SDS011;315;48.738;9.126;2023-02-28T00:01:27;2.90;;;2.67;;
665;SDS011;315;48.738;9.126;2023-02-28T00:03:52;3.27;;;2.97;;
665;SDS011;315;48.738;9.126;2023-02-28T00:06:18;4.03;;;3.63;;
665;SDS011;315;48.738;9.126;2023-02-28T00:08:44;3.43;;;3.13;;
665;SDS011;315;48.738;9.126;2023-02-28T00:11:11;3.23;;;3.00;;
665;SDS011;315;48.738;9.126;2023-02-28T00:13:39;3.63;;;2.93;;
665;SDS011;315;48.738;9.126;2023-02-28T00:16:07;3.17;;;2.80;;
665;SDS011;315;48.738;9.126;2023-02-28T00:18:35;2.73;;;2.50;;
665;SDS011;315;48.738;9.126;2023-02-28T00:21:01;3.80;;;3.20;;
665;SDS011;315;48.738;9.126;2023-02-28T00:23:27;4.80;;;3.03;;
665;SDS011;315;48.738;9.126;2023-02-28T00:25:53;5.07;;;3.27;;
665;SDS011;315;48.738;9.126;2023-02-28T00:28:18;5.00;;;3.30;;
665;SDS011;315;48.738;9.126;2023-02-28T00:30:44;5.57;;;3.70;;
665;SDS011;315;48.738;9.126;2023-02-28T00:33:10;4.53;;;3.53;;
665;SDS011;315;48.738;9.126;2023-02-28T00:35:35;4.03;;;3.63;;
665;SDS011;315;48.738;9.126;2023-02-28T00:38:01;3.47;;;3.17;;
665;SDS011;315;48.738;9.126;2023-02-28T00:40:27;4.67;;;4.07;;
665;SDS011;315;48.738;9.126;2023-02-28T00:42:52;4.53;;;2.90;;
665;SDS011;315;48.738;9.126;2023-02-28T00:45:18;3.40;;;2.77;;
665;SDS011;315;48.738;9.126;2023-02-28T00:47:44;4.27;;;3.23;;
665;SDS011;315;48.738;9.126;2023-02-28T00:50:11;2.83;;;2.63;;
665;SDS011;315;48.738;9.126;2023-02-28T00:52:37;4.10;;;3.07;;
665;SDS011;315;48.738;9.126;2023-02-28T00:55:03;3.50;;;3.10;;
665;SDS011;315;48.738;9.126;2023-02-28T00:57:29;7.63;;;3.57;;
665;SDS011;315;48.738;9.126;2023-02-28T00:59:54;3.63;;;3.33;;
665;SDS011;315;48.738;9.126;2023-02-28T01:02:21;5.27;;;3.30;;
665;SDS011;315;48.738;9.126;2023-02-28T01:04:47;3.30;;;3.00;;
665;SDS011;315;48.738;9.126;2023-02-28T01:07:12;3.93;;;3.20;;
665;SDS011;315;48.738;9.126;2023-02-28T01:09:39;3.97;;;3.40;;
665;SDS011;315;48.738;9.126;2023-02-28T01:12:06;4.00;;;3.30;;
665;SDS011;315;48.738;9.126;2023-02-28T01:14:32;3.47;;;3.17;;
665;SDS011;315;48.738;9.126;2023-02-28T01:16:57;4.90;;;3.90;;
665;SDS011;315;48.738;9.126;2023-02-28T01:19:23;3.63;;;3.33;;
665;SDS011;315;48.738;9.126;2023-02-28T01:21:48;4.27;;;3.83;;
665;SDS011;315;48.738;9.126;2023-02-28T01:24:14;5.90;;;3.63;;
665;SDS011;315;48.738;9.126;2023-02-28T01:26:39;4.50;;;4.10;;
665;SDS011;315;48.738;9.126;2023-02-28T01:29:05;5.00;;;3.47;;
665;SDS011;315;48.738;9.126;2023-02-28T01:31:30;4.00;;;3.40;;
665;SDS011;315;48.738;9.126;2023-02-28T01:33:56;4.50;;;3.33;;
665;SDS011;315;48.738;9.126;2023-02-28T01:36:23;5.87;;;3.23;;
665;SDS011;315;48.738;9.126;2023-02-28T01:38:49;4.43;;;4.03;;
665;SDS011;315;48.738;9.126;2023-02-28T01:41:18;3.80;;;3.43;;
665;SDS011;315;48.738;9.126;2023-02-28T01:46:11;4.73;;;3.97;;
665;SDS011;315;48.738;9.126;2023-02-28T01:48:38;4.80;;;4.17;;
665;SDS011;315;48.738;9.126;2023-02-28T01:51:50;5.30;;;3.80;;
665;SDS011;315;48.738;9.126;2023-02-28T01:54:01;6.80;;;4.30;;
665;SDS011;315;48.738;9.126;2023-02-28T01:56:38;4.87;;;3.90;;
665;SDS011;315;48.738;9.126;2023-02-28T01:59:06;4.67;;;3.87;;
665;SDS011;315;48.738;9.126;2023-02-28T02:01:31;7.00;;;4.03;;
665;SDS011;315;48.738;9.126;2023-02-28T02:03:57;5.07;;;3.73;;
665;SDS011;315;48.738;9.126;2023-02-28T02:06:30;3.83;;;3.40;;
665;SDS011;315;48.738;9.126;2023-02-28T02:09:00;5.07;;;3.70;;
665;SDS011;315;48.738;9.126;2023-02-28T02:11:27;5.53;;;3.93;;
665;SDS011;315;48.738;9.126;2023-02-28T02:22:18;4.00;;;3.60;;
665;SDS011;315;48.738;9.126;2023-02-28T02:30:44;4.70;;;4.30;;
665;SDS011;315;48.738;9.126;2023-02-28T02:33:25;5.27;;;4.30;;
665;SDS011;315;48.738;9.126;2023-02-28T02:41:45;7.43;;;5.17;;
665;SDS011;315;48.738;9.126;2023-02-28T02:44:21;7.97;;;4.50;;
665;SDS011;315;48.738;9.126;2023-02-28T02:46:53;4.50;;;3.50;;
665;SDS011;315;48.738;9.126;2023-02-28T02:49:26;5.03;;;4.50;;
665;SDS011;315;48.738;9.126;2023-02-28T02:51:56;5.33;;;4.93;;
665;SDS011;315;48.738;9.126;2023-02-28T02:54:30;4.83;;;4.33;;
665;SDS011;315;48.738;9.126;2023-02-28T02:57:01;5.53;;;5.03;;
665;SDS011;315;48.738;9.126;2023-02-28T02:59:30;5.53;;;4.87;;
665;SDS011;315;48.738;9.126;2023-02-28T03:02:00;4.43;;;4.03;;
665;SDS011;315;48.738;9.126;2023-02-28T03:04:30;5.43;;;5.00;;
665;SDS011;315;48.738;9.126;2023-02-28T03:06:59;5.90;;;4.93;;
665;SDS011;315;48.738;9.126;2023-02-28T03:09:25;6.40;;;4.60;;
665;SDS011;315;48.738;9.126;2023-02-28T03:11:52;4.40;;;3.97;;
665;SDS011;315;48.738;9.126;2023-02-28T03:20:25;8.17;;;4.83;;
665;SDS011;315;48.738;9.126;2023-02-28T03:23:51;6.00;;;4.43;;
665;SDS011;315;48.738;9.126;2023-02-28T03:26:17;6.33;;;5.47;;
665;SDS011;315;48.738;9.126;2023-02-28T03:29:02;10.20;;;6.03;;
665;SDS011;315;48.738;9.126;2023-02-28T03:31:41;7.67;;;4.83;;
665;SDS011;315;48.738;9.126;2023-02-28T03:34:13;5.63;;;5.13;;
665;SDS011;315;48.738;9.126;2023-02-28T03:36:51;5.00;;;4.00;;
665;SDS011;315;48.738;9.126;2023-02-28T03:39:34;6.23;;;4.93;;
665;SDS011;315;48.738;9.126;2023-02-28T03:42:11;6.00;;;5.40;;
665;SDS011;315;48.738;9.126;2023-02-28T03:44:48;6.07;;;5.47;;
665;SDS011;315;48.738;9.126;2023-02-28T03:47:21;6.10;;;5.50;;
665;SDS011;315;48.738;9.126;2023-02-28T03:50:03;5.27;;;4.77;;
665;SDS011;315;48.738;9.126;2023-02-28T03:52:32;6.93;;;4.97;;
665;SDS011;315;48.738;9.126;2023-02-28T03:55:02;6.63;;;6.03;;
665;SDS011;315;48.738;9.126;2023-02-28T03:57:34;7.13;;;5.27;;
665;SDS011;315;48.738;9.126;2023-02-28T04:00:34;7.83;;;5.97;;
665;SDS011;315;48.738;9.126;2023-02-28T04:03:04;7.33;;;5.10;;
665;SDS011;315;48.738;9.126;2023-02-28T04:05:29;8.67;;;5.00;;
665;SDS011;315;48.738;9.126;2023-02-28T04:08:03;12.03;;;6.80;;
665;SDS011;315;48.738;9.126;2023-02-28T04:10:32;8.20;;;6.50;;
665;SDS011;315;48.738;9.126;2023-02-28T04:12:57;8.50;;;6.67;;
665;SDS011;315;48.738;9.126;2023-02-28T04:15:23;6.37;;;5.40;;
665;SDS011;315;48.738;9.126;2023-02-28T04:17:49;6.73;;;6.13;;
665;SDS011;315;48.738;9.126;2023-02-28T04:20:15;6.97;;;5.60;;
665;SDS011;315;48.738;9.126;2023-02-28T04:22:41;7.10;;;5.33;;
665;SDS011;315;48.738;9.126;2023-02-28T04:25:07;9.13;;;5.70;;
665;SDS011;315;48.738;9.126;2023-02-28T04:27:33;7.10;;;5.47;;
665;SDS011;315;48.738;9.126;2023-02-28T04:29:58;6.37;;;5.80;;
665;SDS011;315;48.738;9.126;2023-02-28T04:32:24;6.33;;;5.30;;
665;SDS011;315;48.738;9.126;2023-02-28T04:34:49;6.00;;;5.40;;
665;SDS011;315;48.738;9.126;2023-02-28T04:37:15;10.70;;;6.77;;
665;SDS011;315;48.738;9.126;2023-02-28T04:39:41;8.00;;;5.60;;
665;SDS011;315;48.738;9.126;2023-02-28T04:42:07;7.93;;;6.40;;
665;SDS011;315;48.738;9.126;2023-02-28T04:44:34;5.87;;;5.27;;
665;SDS011;315;48.738;9.126;2023-02-28T04:46:59;6.97;;;6.27;;
665;SDS011;315;48.738;9.126;2023-02-28T04:49:25;6.23;;;5.63;;
665;SDS011;315;48.738;9.126;2023-02-28T04:51:51;5.33;;;4.87;;
665;SDS011;315;48.738;9.126;2023-02-28T04:54:17;7.80;;;6.50;;
665;SDS011;315;48.738;9.126;2023-02-28T04:56:43;8.37;;;5.50;;
665;SDS011;315;48.738;9.126;2023-02-28T04:59:09;7.60;;;6.23;;
665;SDS011;315;48.738;9.126;2023-02-28T05:01:34;6.30;;;5.70;;
665;SDS011;315;48.738;9.126;2023-02-28T05:04:02;6.70;;;5.93;;
665;SDS011;315;48.738;9.126;2023-02-28T05:06:29;7.43;;;5.53;;
665;SDS011;315;48.738;9.126;2023-02-28T05:08:56;7.33;;;6.10;;
665;SDS011;315;48.738;9.126;2023-02-28T05:11:26;8.10;;;6.63;;
665;SDS011;315;48.738;9.126;2023-02-28T05:13:54;7.10;;;6.10;;
665;SDS011;315;48.738;9.126;2023-02-28T05:16:20;6.67;;;5.83;;
665;SDS011;315;48.738;9.126;2023-02-28T05:18:49;5.77;;;5.17;;
665;SDS011;315;48.738;9.126;2023-02-28T05:21:56;6.07;;;5.47;;
665;SDS011;315;48.738;9.126;2023-02-28T05:24:12;8.30;;;6.20;;
665;SDS011;315;48.738;9.126;2023-02-28T05:26:39;6.43;;;5.57;;
665;SDS011;315;48.738;9.126;2023-02-28T05:29:06;7.57;;;6.70;;
665;SDS011;315;48.738;9.126;2023-02-28T05:31:32;8.17;;;6.27;;
665;SDS011;315;48.738;9.126;2023-02-28T05:33:58;7.00;;;6.30;;
665;SDS011;315;48.738;9.126;2023-02-28T05:36:24;6.87;;;6.00;;
665;SDS011;315;48.738;9.126;2023-02-28T05:38:50;6.97;;;6.27;;
665;SDS011;315;48.738;9.126;2023-02-28T05:41:16;6.53;;;5.43;;
665;SDS011;315;48.738;9.126;2023-02-28T05:43:44;8.93;;;6.87;;
665;SDS011;315;48.738;9.126;2023-02-28T05:46:10;8.23;;;6.20;;
665;SDS011;315;48.738;9.126;2023-02-28T05:48:38;7.00;;;6.10;;
665;SDS011;315;48.738;9.126;2023-02-28T05:51:04;7.27;;;6.57;;
665;SDS011;315;48.738;9.126;2023-02-28T05:53:30;7.50;;;6.63;;
665;SDS011;315;48.738;9.126;2023-02-28T05:55:57;9.33;;;6.17;;
665;SDS011;315;48.738;9.126;2023-02-28T05:58:22;8.90;;;6.77;;
665;SDS011;315;48.738;9.126;2023-02-28T06:00:48;7.50;;;6.37;;
665;SDS011;315;48.738;9.126;2023-02-28T06:03:14;7.90;;;6.10;;
665;SDS011;315;48.738;9.126;2023-02-28T06:05:39;7.33;;;6.50;;
665;SDS011;315;48.738;9.126;2023-02-28T06:08:05;7.60;;;6.47;;
665;SDS011;315;48.738;9.126;2023-02-28T06:10:32;9.70;;;6.90;;
665;SDS011;315;48.738;9.126;2023-02-28T06:13:02;8.77;;;7.17;;
665;SDS011;315;48.738;9.126;2023-02-28T06:15:28;13.20;;;6.90;;
665;SDS011;315;48.738;9.126;2023-02-28T06:17:54;11.03;;;7.23;;
665;SDS011;315;48.738;9.126;2023-02-28T06:20:21;11.23;;;6.87;;
665;SDS011;315;48.738;9.126;2023-02-28T06:22:47;9.60;;;7.50;;
665;SDS011;315;48.738;9.126;2023-02-28T06:25:15;8.87;;;7.97;;
665;SDS011;315;48.738;9.126;2023-02-28T06:27:40;10.00;;;7.80;;
665;SDS011;315;48.738;9.126;2023-02-28T06:30:06;15.10;;;8.93;;
665;SDS011;315;48.738;9.126;2023-02-28T06:32:32;8.83;;;7.83;;
665;SDS011;315;48.738;9.126;2023-02-28T06:34:57;7.60;;;6.50;;
665;SDS011;315;48.738;9.126;2023-02-28T06:37:23;7.97;;;6.67;;
665;SDS011;315;48.738;9.126;2023-02-28T06:39:51;9.93;;;7.87;;
665;SDS011;315;48.738;9.126;2023-02-28T06:42:16;9.63;;;6.60;;
665;SDS011;315;48.738;9.126;2023-02-28T06:44:42;11.20;;;8.27;;
665;SDS011;315;48.738;9.126;2023-02-28T06:47:08;8.23;;;7.53;;
665;SDS011;315;48.738;9.126;2023-02-28T06:49:34;8.60;;;7.20;;
665;SDS011;315;48.738;9.126;2023-02-28T06:52:00;10.30;;;7.80;;
665;SDS011;315;48.738;9.126;2023-02-28T06:54:26;12.63;;;7.53;;
665;SDS011;315;48.738;9.126;2023-02-28T06:56:52;10.33;;;7.53;;
665;SDS011;315;48.738;9.126;2023-02-28T06:59:19;9.57;;;7.20;;
665;SDS011;315;48.738;9.126;2023-02-28T07:01:45;9.80;;;7.47;;
665;SDS011;315;48.738;9.126;2023-02-28T07:04:10;7.57;;;6.60;;
665;SDS011;315;48.738;9.126;2023-02-28T07:06:37;10.40;;;7.50;;
665;SDS011;315;48.738;9.126;2023-02-28T07:09:03;9.80;;;7.90;;
665;SDS011;315;48.738;9.126;2023-02-28T07:11:29;10.20;;;7.73;;
665;SDS011;315;48.738;9.126;2023-02-28T07:13:55;9.67;;;8.67;;
665;SDS011;315;48.738;9.126;2023-02-28T07:16:22;8.17;;;7.40;;
665;SDS011;315;48.738;9.126;2023-02-28T07:18:49;7.90;;;7.10;;
665;SDS011;315;48.738;9.126;2023-02-28T07:21:14;10.40;;;8.43;;
665;SDS011;315;48.738;9.126;2023-02-28T07:23:41;11.00;;;7.90;;
665;SDS011;315;48.738;9.126;2023-02-28T07:26:07;9.93;;;7.90;;
665;SDS011;315;48.738;9.126;2023-02-28T07:28:39;9.70;;;7.60;;
665;SDS011;315;48.738;9.126;2023-02-28T07:31:09;9.37;;;7.50;;
665;SDS011;315;48.738;9.126;2023-02-28T07:33:35;10.33;;;8.57;;
665;SDS011;315;48.738;9.126;2023-02-28T07:36:02;9.37;;;7.83;;
665;SDS011;315;48.738;9.126;2023-02-28T07:38:29;8.13;;;7.23;;
665;SDS011;315;48.738;9.126;2023-02-28T07:40:55;12.30;;;8.20;;
665;SDS011;315;48.738;9.126;2023-02-28T07:43:21;10.67;;;8.00;;
665;SDS011;315;48.738;9.126;2023-02-28T07:45:46;8.03;;;7.23;;
665;SDS011;315;48.738;9.126;2023-02-28T07:48:12;12.47;;;8.03;;
665;SDS011;315;48.738;9.126;2023-02-28T07:50:37;10.87;;;7.70;;
665;SDS011;315;48.738;9.126;2023-02-28T07:53:03;14.00;;;8.90;;
665;SDS011;315;48.738;9.126;2023-02-28T07:55:29;10.97;;;8.23;;
665;SDS011;315;48.738;9.126;2023-02-28T07:57:54;10.10;;;8.63;;
665;SDS011;315;48.738;9.126;2023-02-28T08:00:22;8.00;;;7.17;;
665;SDS011;315;48.738;9.126;2023-02-28T08:02:48;9.70;;;8.70;;
665;SDS011;315;48.738;9.126;2023-02-28T08:05:14;11.73;;;8.27;;
665;SDS011;315;48.738;9.126;2023-02-28T08:07:39;10.27;;;8.90;;
665;SDS011;315;48.738;9.126;2023-02-28T08:10:05;13.50;;;9.57;;
665;SDS011;315;48.738;9.126;2023-02-28T08:12:31;10.93;;;8.20;;
665;SDS011;315;48.738;9.126;2023-02-28T08:14:57;12.73;;;9.27;;
665;SDS011;315;48.738;9.126;2023-02-28T08:17:22;9.90;;;9.00;;
665;SDS011;315;48.738;9.126;2023-02-28T08:19:48;10.87;;;8.40;;
665;SDS011;315;48.738;9.126;2023-02-28T08:22:14;8.87;;;7.57;;
665;SDS011;315;48.738;9.126;2023-02-28T08:24:40;9.73;;;8.60;;
665;SDS011;315;48.738;9.126;2023-02-28T08:27:07;12.47;;;9.53;;
665;SDS011;315;48.738;9.126;2023-02-28T08:29:33;13.10;;;9.00;;
665;SDS011;315;48.738;9.126;2023-02-28T08:31:58;12.00;;;9.50;;
665;SDS011;315;48.738;9.126;2023-02-28T08:34:24;11.60;;;8.67;;
665;SDS011;315;48.738;9.126;2023-02-28T08:36:49;10.00;;;7.97;;
665;SDS011;315;48.738;9.126;2023-02-28T08:39:15;11.90;;;9.20;;
665;SDS011;315;48.738;9.126;2023-02-28T08:41:41;13.83;;;9.63;;
665;SDS011;315;48.738;9.126;2023-02-28T08:44:08;8.70;;;7.63;;
665;SDS011;315;48.738;9.126;2023-02-28T08:46:34;11.80;;;9.27;;
665;SDS011;315;48.738;9.126;2023-02-28T08:49:00;14.93;;;8.40;;
665;SDS011;315;48.738;9.126;2023-02-28T08:51:26;11.03;;;9.27;;
665;SDS011;315;48.738;9.126;2023-02-28T08:53:57;10.40;;;9.03;;
665;SDS011;315;48.738;9.126;2023-02-28T08:56:24;10.30;;;9.03;;
665;SDS011;315;48.738;9.126;2023-02-28T08:58:51;13.30;;;8.90;;
665;SDS011;315;48.738;9.126;2023-02-28T09:01:21;13.03;;;8.50;;
665;SDS011;315;48.738;9.126;2023-02-28T09:03:49;12.80;;;9.70;;
665;SDS011;315;48.738;9.126;2023-02-28T09:06:17;13.10;;;9.60;;
665;SDS011;315;48.738;9.126;2023-02-28T09:08:44;11.40;;;9.53;;
665;SDS011;315;48.738;9.126;2023-02-28T09:11:10;15.77;;;10.60;;
665;SDS011;315;48.738;9.126;2023-02-28T09:13:36;12.17;;;9.60;;
665;SDS011;315;48.738;9.126;2023-02-28T09:16:03;13.63;;;9.40;;
665;SDS011;315;48.738;9.126;2023-02-28T09:18:30;16.07;;;9.60;;
665;SDS011;315;48.738;9.126;2023-02-28T09:20:57;13.53;;;8.83;;
665;SDS011;315;48.738;9.126;2023-02-28T09:23:23;11.63;;;9.60;;
665;SDS011;315;48.738;9.126;2023-02-28T09:25:53;8.90;;;7.63;;
665;SDS011;315;48.738;9.126;2023-02-28T09:28:19;11.63;;;10.13;;
665;SDS011;315;48.738;9.126;2023-02-28T09:30:46;11.13;;;9.70;;
665;SDS011;315;48.738;9.126;2023-02-28T09:33:14;14.07;;;9.40;;
665;SDS011;315;48.738;9.126;2023-02-28T09:35:40;13.20;;;10.17;;
665;SDS011;315;48.738;9.126;2023-02-28T09:38:05;12.17;;;9.10;;
665;SDS011;315;48.738;9.126;2023-02-28T09:40:34;10.00;;;8.20;;
665;SDS011;315;48.738;9.126;2023-02-28T09:43:16;12.03;;;8.57;;
665;SDS011;315;48.738;9.126;2023-02-28T09:45:47;11.37;;;10.13;;
665;SDS011;315;48.738;9.126;2023-02-28T09:48:37;12.57;;;9.53;;
665;SDS011;315;48.738;9.126;2023-02-28T09:53:47;12.50;;;9.53;;
665;SDS011;315;48.738;9.126;2023-02-28T09:56:15;11.47;;;8.80;;
665;SDS011;315;48.738;9.126;2023-02-28T09:58:53;11.50;;;9.47;;
665;SDS011;315;48.738;9.126;2023-02-28T10:04:37;14.87;;;10.03;;
665;SDS011;315;48.738;9.126;2023-02-28T10:07:11;8.83;;;7.93;;
665;SDS011;315;48.738;9.126;2023-02-28T10:09:57;10.97;;;9.17;;
665;SDS011;315;48.738;9.126;2023-02-28T10:12:27;12.10;;;9.63;;
665;SDS011;315;48.738;9.126;2023-02-28T10:14:55;12.23;;;10.40;;
665;SDS011;315;48.738;9.126;2023-02-28T10:17:25;11.23;;;9.07;;
665;SDS011;315;48.738;9.126;2023-02-28T10:19:58;11.33;;;9.93;;
665;SDS011;315;48.738;9.126;2023-02-28T10:25:39;12.77;;;10.13;;
665;SDS011;315;48.738;9.126;2023-02-28T10:30:33;13.90;;;10.80;;
665;SDS011;315;48.738;9.126;2023-02-28T10:32:59;14.67;;;9.77;;
665;SDS011;315;48.738;9.126;2023-02-28T10:35:25;10.73;;;9.60;;
665;SDS011;315;48.738;9.126;2023-02-28T10:37:59;12.77;;;9.13;;
665;SDS011;315;48.738;9.126;2023-02-28T10:40:31;11.47;;;10.00;;
665;SDS011;315;48.738;9.126;2023-02-28T10:45:38;14.20;;;11.73;;
665;SDS011;315;48.738;9.126;2023-02-28T10:50:43;15.30;;;10.70;;
665;SDS011;315;48.738;9.126;2023-02-28T11:06:57;14.37;;;10.53;;
665;SDS011;315;48.738;9.126;2023-02-28T11:09:25;11.37;;;10.17;;
665;SDS011;315;48.738;9.126;2023-02-28T11:11:52;13.83;;;10.60;;
665;SDS011;315;48.738;9.126;2023-02-28T11:14:22;12.27;;;10.20;;
665;SDS011;315;48.738;9.126;2023-02-28T11:16:50;10.67;;;9.57;;
665;SDS011;315;48.738;9.126;2023-02-28T11:19:39;14.30;;;10.13;;
665;SDS011;315;48.738;9.126;2023-02-28T11:22:10;11.47;;;10.23;;
665;SDS011;315;48.738;9.126;2023-02-28T11:24:42;12.27;;;11.03;;
665;SDS011;315;48.738;9.126;2023-02-28T11:29:55;13.40;;;10.77;;
665;SDS011;315;48.738;9.126;2023-02-28T11:32:22;13.10;;;10.90;;
665;SDS011;315;48.738;9.126;2023-02-28T11:35:02;12.23;;;10.73;;
665;SDS011;315;48.738;9.126;2023-02-28T11:37:34;10.87;;;9.77;;
665;SDS011;315;48.738;9.126;2023-02-28T11:40:00;11.83;;;10.63;;
665;SDS011;315;48.738;9.126;2023-02-28T11:47:57;11.70;;;10.60;;
665;SDS011;315;48.738;9.126;2023-02-28T11:56:29;11.87;;;10.87;;
665;SDS011;315;48.738;9.126;2023-02-28T12:02:21;12.43;;;11.23;;
665;SDS011;315;48.738;9.126;2023-02-28T12:04:58;15.43;;;12.10;;
665;SDS011;315;48.738;9.126;2023-02-28T12:07:47;13.33;;;12.13;;
665;SDS011;315;48.738;9.126;2023-02-28T12:10:29;17.33;;;11.70;;
665;SDS011;315;48.738;9.126;2023-02-28T12:13:09;12.53;;;11.43;;
665;SDS011;315;48.738;9.126;2023-02-28T12:18:38;12.33;;;11.23;;
665;SDS011;315;48.738;9.126;2023-02-28T12:23:57;12.47;;;11.37;;
665;SDS011;315;48.738;9.126;2023-02-28T12:26:34;13.20;;;12.10;;
665;SDS011;315;48.738;9.126;2023-02-28T12:29:14;12.40;;;11.23;;
665;SDS011;315;48.738;9.126;2023-02-28T12:34:18;12.27;;;11.20;;
665;SDS011;315;48.738;9.126;2023-02-28T12:36:46;12.83;;;11.63;;
665;SDS011;315;48.738;9.126;2023-02-28T12:39:18;12.83;;;11.73;;
665;SDS011;315;48.738;9.126;2023-02-28T12:41:49;12.00;;;11.07;;
665;SDS011;315;48.738;9.126;2023-02-28T12:44:23;12.40;;;11.33;;
665;SDS011;315;48.738;9.126;2023-02-28T12:47:14;9.70;;;9.00;;
665;SDS011;315;48.738;9.126;2023-02-28T12:52:21;11.73;;;10.77;;
665;SDS011;315;48.738;9.126;2023-02-28T12:54:54;12.63;;;11.50;;
665;SDS011;315;48.738;9.126;2023-02-28T12:57:38;13.47;;;12.37;;
665;SDS011;315;48.738;9.126;2023-02-28T13:00:14;13.13;;;11.93;;
665;SDS011;315;48.738;9.126;2023-02-28T13:05:41;12.40;;;11.20;;
665;SDS011;315;48.738;9.126;2023-02-28T13:10:52;13.13;;;12.10;;
665;SDS011;315;48.738;9.126;2023-02-28T13:13:21;11.77;;;10.77;;
665;SDS011;315;48.738;9.126;2023-02-28T13:18:43;11.67;;;10.77;;
665;SDS011;315;48.738;9.126;2023-02-28T13:21:29;13.23;;;12.00;;
665;SDS011;315;48.738;9.126;2023-02-28T13:34:31;13.30;;;12.03;;
665;SDS011;315;48.738;9.126;2023-02-28T13:37:30;11.73;;;10.67;;
665;SDS011;315;48.738;9.126;2023-02-28T13:39:51;13.33;;;12.03;;
665;SDS011;315;48.738;9.126;2023-02-28T13:47:30;13.53;;;12.27;;
665;SDS011;315;48.738;9.126;2023-02-28T14:01:22;12.40;;;11.30;;
665;SDS011;315;48.738;9.126;2023-02-28T14:04:33;12.40;;;11.30;;
665;SDS011;315;48.738;9.126;2023-02-28T14:07:06;11.57;;;10.57;;
665;SDS011;315;48.738;9.126;2023-02-28T14:09:40;12.00;;;10.80;;
665;SDS011;315;48.738;9.126;2023-02-28T14:17:54;14.23;;;11.60;;
665;SDS011;315;48.738;9.126;2023-02-28T14:20:21;12.00;;;10.97;;
665;SDS011;315;48.738;9.126;2023-02-28T14:23:04;12.57;;;11.57;;
665;SDS011;315;48.738;9.126;2023-02-28T14:31:32;13.00;;;11.80;;
665;SDS011;315;48.738;9.126;2023-02-28T14:34:44;13.63;;;10.90;;
665;SDS011;315;48.738;9.126;2023-02-28T14:36:50;11.60;;;10.57;;
665;SDS011;315;48.738;9.126;2023-02-28T14:39:25;9.87;;;9.00;;
665;SDS011;315;48.738;9.126;2023-02-28T14:41:52;16.70;;;10.20;;
665;SDS011;315;48.738;9.126;2023-02-28T14:44:19;11.87;;;10.57;;
665;SDS011;315;48.738;9.126;2023-02-28T14:46:53;11.73;;;10.53;;
665;SDS011;315;48.738;9.126;2023-02-28T14:49:27;10.43;;;9.43;;
665;SDS011;315;48.738;9.126;2023-02-28T14:52:29;11.53;;;10.07;;
665;SDS011;315;48.738;9.126;2023-02-28T14:55:05;11.97;;;10.70;;
665;SDS011;315;48.738;9.126;2023-02-28T14:57:41;11.47;;;10.33;;
665;SDS011;315;48.738;9.126;2023-02-28T15:00:22;10.60;;;9.17;;
665;SDS011;315;48.738;9.126;2023-02-28T15:02:48;12.20;;;10.10;;
665;SDS011;315;48.738;9.126;2023-02-28T15:07:43;11.30;;;10.20;;
665;SDS011;315;48.738;9.126;2023-02-28T15:12:39;10.93;;;9.37;;
665;SDS011;315;48.738;9.126;2023-02-28T15:15:13;10.90;;;9.77;;
665;SDS011;315;48.738;9.126;2023-02-28T15:17:40;11.27;;;10.07;;
665;SDS011;315;48.738;9.126;2023-02-28T15:20:13;15.27;;;9.93;;
665;SDS011;315;48.738;9.126;2023-02-28T15:22:40;16.00;;;9.97;;
665;SDS011;315;48.738;9.126;2023-02-28T15:25:06;11.70;;;10.47;;
665;SDS011;315;48.738;9.126;2023-02-28T15:27:35;9.07;;;8.27;;
665;SDS011;315;48.738;9.126;2023-02-28T15:30:17;9.87;;;8.97;;
665;SDS011;315;48.738;9.126;2023-02-28T15:35:45;11.40;;;10.23;;
665;SDS011;315;48.738;9.126;2023-02-28T15:40:42;10.27;;;9.27;;
665;SDS011;315;48.738;9.126;2023-02-28T15:46:36;11.70;;;10.50;;
665;SDS011;315;48.738;9.126;2023-02-28T15:49:01;9.80;;;8.80;;
665;SDS011;315;48.738;9.126;2023-02-28T15:51:32;15.10;;;10.83;;
665;SDS011;315;48.738;9.126;2023-02-28T15:54:08;11.63;;;9.50;;
665;SDS011;315;48.738;9.126;2023-02-28T15:56:43;11.10;;;10.00;;
665;SDS011;315;48.738;9.126;2023-02-28T15:59:18;11.63;;;10.43;;
665;SDS011;315;48.738;9.126;2023-02-28T16:02:01;14.80;;;11.87;;
665;SDS011;315;48.738;9.126;2023-02-28T16:04:54;12.93;;;10.03;;
665;SDS011;315;48.738;9.126;2023-02-28T16:07:41;11.63;;;10.40;;
665;SDS011;315;48.738;9.126;2023-02-28T16:10:09;11.77;;;10.53;;
665;SDS011;315;48.738;9.126;2023-02-28T16:12:37;10.07;;;9.07;;
665;SDS011;315;48.738;9.126;2023-02-28T16:15:23;10.20;;;9.20;;
665;SDS011;315;48.738;9.126;2023-02-28T16:17:54;13.47;;;10.37;;
665;SDS011;315;48.738;9.126;2023-02-28T16:22:48;14.13;;;11.47;;
665;SDS011;315;48.738;9.126;2023-02-28T16:25:14;11.03;;;10.03;;
665;SDS011;315;48.738;9.126;2023-02-28T16:27:42;14.63;;;11.57;;
665;SDS011;315;48.738;9.126;2023-02-28T16:30:15;18.43;;;10.53;;
665;SDS011;315;48.738;9.126;2023-02-28T16:32:47;14.10;;;11.37;;
665;SDS011;315;48.738;9.126;2023-02-28T16:35:13;11.17;;;9.90;;
665;SDS011;315;48.738;9.126;2023-02-28T16:37:39;14.60;;;10.63;;
665;SDS011;315;48.738;9.126;2023-02-28T16:40:06;12.30;;;11.03;;
665;SDS011;315;48.738;9.126;2023-02-28T16:42:34;12.03;;;10.83;;
665;SDS011;315;48.738;9.126;2023-02-28T16:44:59;13.90;;;10.30;;
665;SDS011;315;48.738;9.126;2023-02-28T16:47:25;11.77;;;10.50;;
665;SDS011;315;48.738;9.126;2023-02-28T16:49:51;13.37;;;10.67;;
665;SDS011;315;48.738;9.126;2023-02-28T16:52:17;16.37;;;10.77;;
665;SDS011;315;48.738;9.126;2023-02-28T16:54:42;11.83;;;10.53;;
665;SDS011;315;48.738;9.126;2023-02-28T16:57:29;13.63;;;11.40;;
665;SDS011;315;48.738;9.126;2023-02-28T16:59:54;12.50;;;11.17;;
665;SDS011;315;48.738;9.126;2023-02-28T17:02:19;11.80;;;10.53;;
665;SDS011;315;48.738;9.126;2023-02-28T17:04:45;14.20;;;12.10;;
665;SDS011;315;48.738;9.126;2023-02-28T17:07:12;12.77;;;10.63;;
665;SDS011;315;48.738;9.126;2023-02-28T17:09:40;12.80;;;11.43;;
665;SDS011;315;48.738;9.126;2023-02-28T17:12:06;14.13;;;12.30;;
665;SDS011;315;48.738;9.126;2023-02-28T17:14:32;15.53;;;12.50;;
665;SDS011;315;48.738;9.126;2023-02-28T17:16:58;14.97;;;11.30;;
665;SDS011;315;48.738;9.126;2023-02-28T17:19:23;12.00;;;10.80;;
665;SDS011;315;48.738;9.126;2023-02-28T17:21:49;13.73;;;11.53;;
665;SDS011;315;48.738;9.126;2023-02-28T17:24:15;15.90;;;11.60;;
665;SDS011;315;48.738;9.126;2023-02-28T17:26:41;13.03;;;11.70;;
665;SDS011;315;48.738;9.126;2023-02-28T17:29:17;15.40;;;12.03;;
665;SDS011;315;48.738;9.126;2023-02-28T17:31:44;13.67;;;10.30;;
665;SDS011;315;48.738;9.126;2023-02-28T17:34:10;14.23;;;11.37;;
665;SDS011;315;48.738;9.126;2023-02-28T17:36:36;11.77;;;10.60;;
665;SDS011;315;48.738;9.126;2023-02-28T17:39:03;11.70;;;10.60;;
665;SDS011;315;48.738;9.126;2023-02-28T17:41:33;13.97;;;11.13;;
665;SDS011;315;48.738;9.126;2023-02-28T17:43:59;15.60;;;11.00;;
665;SDS011;315;48.738;9.126;2023-02-28T17:46:24;13.30;;;11.97;;
665;SDS011;315;48.738;9.126;2023-02-28T17:48:51;15.13;;;13.13;;
665;SDS011;315;48.738;9.126;2023-02-28T17:51:18;20.47;;;13.43;;
665;SDS011;315;48.738;9.126;2023-02-28T17:53:44;20.40;;;12.33;;
665;SDS011;315;48.738;9.126;2023-02-28T17:56:15;14.10;;;12.00;;
665;SDS011;315;48.738;9.126;2023-02-28T17:58:43;22.20;;;16.27;;
665;SDS011;315;48.738;9.126;2023-02-28T18:01:09;15.67;;;11.87;;
665;SDS011;315;48.738;9.126;2023-02-28T18:03:36;15.60;;;12.70;;
665;SDS011;315;48.738;9.126;2023-02-28T18:06:02;17.67;;;13.43;;
665;SDS011;315;48.738;9.126;2023-02-28T18:08:28;14.50;;;11.40;;
665;SDS011;315;48.738;9.126;2023-02-28T18:10:53;15.63;;;12.50;;
665;SDS011;315;48.738;9.126;2023-02-28T18:13:19;16.90;;;12.83;;
665;SDS011;315;48.738;9.126;2023-02-28T18:15:45;19.53;;;14.97;;
665;SDS011;315;48.738;9.126;2023-02-28T18:18:10;15.33;;;12.80;;